createdAt,value
2018-12-14T00:00:44.662Z,1019.59
2018-12-14T00:01:44.600Z,1019.62
2018-12-14T00:02:45.026Z,1019.64
2018-12-14T00:03:44.623Z,1019.66
2018-12-14T00:04:44.608Z,1019.66
2018-12-14T00:05:44.562Z,1019.66
2018-12-14T00:06:44.636Z,1019.67
2018-12-14T00:07:45.349Z,1019.67
2018-12-14T00:08:44.534Z,1019.65
2018-12-14T00:09:44.592Z,1019.67
2018-12-14T00:10:44.506Z,1019.65
2018-12-14T00:11:45.636Z,1019.62
2018-12-14T00:12:44.477Z,1019.66
2018-12-14T00:13:44.601Z,1019.66
2018-12-14T00:14:44.491Z,1019.63
2018-12-14T00:15:44.462Z,1019.65
2018-12-14T00:16:44.438Z,1019.69
2018-12-14T00:17:44.433Z,1019.64
2018-12-14T00:18:44.426Z,1019.67
2018-12-14T00:19:44.535Z,1019.69
2018-12-14T00:20:44.401Z,1019.66
2018-12-14T00:21:44.385Z,1019.69
2018-12-14T00:22:44.382Z,1019.69
2018-12-14T00:23:44.370Z,1019.71
2018-12-14T00:24:44.349Z,1019.67
2018-12-14T00:25:44.431Z,1019.70
2018-12-14T00:26:44.341Z,1019.72
2018-12-14T00:27:44.327Z,1019.68
2018-12-14T00:28:44.314Z,1019.68
2018-12-14T00:29:44.307Z,1019.69
2018-12-14T00:30:44.292Z,1019.69
2018-12-14T00:31:44.416Z,1019.75
2018-12-14T00:32:44.769Z,1019.73
2018-12-14T00:33:44.263Z,1019.71
2018-12-14T00:34:44.253Z,1019.76
2018-12-14T00:35:44.244Z,1019.73
2018-12-14T00:36:44.228Z,1019.75
2018-12-14T00:37:44.322Z,1019.81
2018-12-14T00:38:44.211Z,1019.77
2018-12-14T00:39:44.202Z,1019.78
2018-12-14T00:40:44.188Z,1019.82
2018-12-14T00:41:44.170Z,1019.87
2018-12-14T00:42:44.164Z,1019.80
2018-12-14T00:43:44.241Z,1019.79
2018-12-14T00:44:44.730Z,1019.86
2018-12-14T00:45:44.143Z,1019.92
2018-12-14T00:46:44.137Z,1019.85
2018-12-14T00:47:44.108Z,1019.91
2018-12-14T00:48:44.143Z,1019.91
2018-12-14T00:49:44.178Z,1019.91
2018-12-14T00:50:44.088Z,1019.88
2018-12-14T00:51:44.069Z,1019.87
2018-12-14T00:52:44.061Z,1019.89
2018-12-14T00:53:44.631Z,1019.92
2018-12-14T00:54:44.725Z,1019.94
2018-12-14T00:55:44.175Z,1019.95
2018-12-14T00:56:44.014Z,1020.02
2018-12-14T00:57:44.133Z,1019.94
2018-12-14T00:58:43.993Z,1019.95
2018-12-14T00:59:43.987Z,1019.96
2018-12-14T01:00:43.963Z,1019.95
2018-12-14T01:01:43.960Z,1019.99
2018-12-14T01:02:43.957Z,1019.99
2018-12-14T01:03:44.096Z,1020.00
2018-12-14T01:04:44.022Z,1020.03
2018-12-14T01:05:43.975Z,1020.03
2018-12-14T01:06:43.904Z,1020.03
2018-12-14T01:07:44.469Z,1020.04
2018-12-14T01:08:43.924Z,1020.03
2018-12-14T01:09:43.866Z,1020.08
2018-12-14T01:10:44.060Z,1020.09
2018-12-14T01:11:44.006Z,1020.11
2018-12-14T01:12:43.981Z,1020.08
2018-12-14T01:13:43.898Z,1020.09
2018-12-14T01:14:43.832Z,1020.09
2018-12-14T01:15:43.906Z,1020.11
2018-12-14T01:16:43.835Z,1020.09
2018-12-14T01:17:43.778Z,1020.11
2018-12-14T01:18:44.198Z,1020.08
2018-12-14T01:19:43.763Z,1020.12
2018-12-14T01:20:43.760Z,1020.07
2018-12-14T01:21:43.743Z,1020.11
2018-12-14T01:22:43.732Z,1020.07
2018-12-14T01:23:44.227Z,1020.10
2018-12-14T01:24:44.031Z,1020.08
2018-12-14T01:25:43.705Z,1020.08
2018-12-14T01:26:43.687Z,1020.05
2018-12-14T01:27:43.695Z,1020.08
2018-12-14T01:28:43.687Z,1020.11
2018-12-14T01:29:43.760Z,1020.06
2018-12-14T01:30:43.646Z,1020.06
2018-12-14T01:31:43.636Z,1020.12
2018-12-14T01:32:43.615Z,1020.09
2018-12-14T01:33:43.619Z,1020.14
2018-12-14T01:34:43.681Z,1020.06
2018-12-14T01:35:43.608Z,1020.11
2018-12-14T01:36:43.584Z,1020.09
2018-12-14T01:37:43.586Z,1020.12
2018-12-14T01:38:43.588Z,1020.05
2018-12-14T01:39:43.549Z,1020.05
2018-12-14T01:40:43.730Z,1020.05
2018-12-14T01:41:43.653Z,1020.07
2018-12-14T01:42:43.515Z,1020.10
2018-12-14T01:43:43.504Z,1020.06
2018-12-14T01:44:43.626Z,1020.06
2018-12-14T01:45:43.477Z,1020.04
2018-12-14T01:46:43.464Z,1019.98
2018-12-14T01:47:43.458Z,1020.06
2018-12-14T01:48:43.474Z,1020.05
2018-12-14T01:49:43.438Z,1020.02
2018-12-14T01:50:43.559Z,1020.01
2018-12-14T01:51:43.414Z,1020.03
2018-12-14T01:52:43.403Z,1019.97
2018-12-14T01:53:43.402Z,1020.01
2018-12-14T01:54:43.451Z,1020.02
2018-12-14T01:55:43.374Z,1019.97
2018-12-14T01:56:43.537Z,1019.98
2018-12-14T01:57:43.350Z,1020.03
2018-12-14T01:58:43.374Z,1019.99
2018-12-14T01:59:43.358Z,1020.00
2018-12-14T02:00:43.326Z,1020.00
2018-12-14T02:01:43.310Z,1019.96
2018-12-14T02:02:43.363Z,1019.97
2018-12-14T02:03:43.306Z,1019.99
2018-12-14T02:04:43.446Z,1020.00
2018-12-14T02:05:43.270Z,1020.00
2018-12-14T02:06:43.258Z,1020.02
2018-12-14T02:07:43.246Z,1020.06
2018-12-14T02:08:43.236Z,1020.04
2018-12-14T02:09:43.221Z,1020.06
2018-12-14T02:10:43.331Z,1020.04
2018-12-14T02:11:43.477Z,1020.03
2018-12-14T02:12:43.187Z,1020.03
2018-12-14T02:13:43.198Z,1020.04
2018-12-14T02:14:43.451Z,1020.04
2018-12-14T02:15:43.332Z,1020.04
2018-12-14T02:16:43.677Z,1020.02
2018-12-14T02:17:43.257Z,1020.04
2018-12-14T02:18:43.222Z,1020.03
2018-12-14T02:19:43.278Z,1020.00
2018-12-14T02:20:43.265Z,1020.01
2018-12-14T02:21:43.147Z,1020.04
2018-12-14T02:22:43.401Z,1020.02
2018-12-14T02:23:43.120Z,1020.03
2018-12-14T02:24:43.195Z,1020.07
2018-12-14T02:25:43.129Z,1020.02
2018-12-14T02:26:43.656Z,1020.06
2018-12-14T02:27:43.042Z,1020.01
2018-12-14T02:28:43.080Z,1020.04
2018-12-14T02:29:43.002Z,1020.00
2018-12-14T02:30:43.117Z,1019.99
2018-12-14T02:31:42.984Z,1019.99
2018-12-14T02:32:43.081Z,1019.97
2018-12-14T02:33:42.968Z,1019.98
2018-12-14T02:34:42.965Z,1019.99
2018-12-14T02:35:42.937Z,1019.95
2018-12-14T02:36:42.960Z,1019.97
2018-12-14T02:37:42.928Z,1019.96
2018-12-14T02:38:43.037Z,1019.97
2018-12-14T02:39:42.902Z,1019.97
2018-12-14T02:40:42.885Z,1019.95
2018-12-14T02:41:42.880Z,1020.00
2018-12-14T02:42:42.879Z,1019.99
2018-12-14T02:43:42.873Z,1020.04
2018-12-14T02:44:42.915Z,1020.01
2018-12-14T02:45:42.830Z,1020.04
2018-12-14T02:46:42.822Z,1020.03
2018-12-14T02:47:42.820Z,1020.08
2018-12-14T02:48:43.438Z,1020.05
2018-12-14T02:49:42.796Z,1020.02
2018-12-14T02:50:42.782Z,1019.96
2018-12-14T02:51:42.766Z,1020.01
2018-12-14T02:52:42.784Z,1020.03
2018-12-14T02:53:42.747Z,1019.99
2018-12-14T02:54:42.858Z,1020.04
2018-12-14T02:55:42.906Z,1019.99
2018-12-14T02:56:42.782Z,1020.05
2018-12-14T02:57:42.709Z,1020.02
2018-12-14T02:58:42.689Z,1020.00
2018-12-14T02:59:42.687Z,1019.98
2018-12-14T03:00:42.710Z,1020.02
2018-12-14T03:01:43.433Z,1019.99
2018-12-14T03:02:42.649Z,1020.02
2018-12-14T03:03:42.651Z,1019.99
2018-12-14T03:04:42.631Z,1020.00
2018-12-14T03:05:42.707Z,1019.97
2018-12-14T03:06:42.618Z,1019.98
2018-12-14T03:07:42.616Z,1019.96
2018-12-14T03:08:42.598Z,1019.97
2018-12-14T03:09:42.580Z,1019.95
2018-12-14T03:10:42.569Z,1019.97
2018-12-14T03:11:42.651Z,1019.92
2018-12-14T03:12:42.565Z,1019.96
2018-12-14T03:13:42.551Z,1019.95
2018-12-14T03:14:42.521Z,1019.98
2018-12-14T03:15:42.502Z,1019.94
2018-12-14T03:16:42.504Z,1019.95
2018-12-14T03:17:43.286Z,1020.00
2018-12-14T03:18:42.494Z,1020.01
2018-12-14T03:19:42.460Z,1019.95
2018-12-14T03:20:42.530Z,1019.93
2018-12-14T03:21:42.768Z,1019.97
2018-12-14T03:22:42.438Z,1020.00
2018-12-14T03:23:42.608Z,1019.92
2018-12-14T03:24:42.473Z,1019.93
2018-12-14T03:25:42.866Z,1019.94
2018-12-14T03:26:42.395Z,1019.91
2018-12-14T03:27:42.512Z,1019.94
2018-12-14T03:28:42.542Z,1019.96
2018-12-14T03:29:42.463Z,1019.95
2018-12-14T03:30:42.405Z,1019.98
2018-12-14T03:31:42.334Z,1020.02
2018-12-14T03:32:42.481Z,1019.98
2018-12-14T03:33:42.400Z,1019.99
2018-12-14T03:34:42.393Z,1020.04
2018-12-14T03:35:42.386Z,1020.00
2018-12-14T03:36:42.290Z,1020.01
2018-12-14T03:37:42.267Z,1020.01
2018-12-14T03:38:42.327Z,1020.02
2018-12-14T03:39:42.247Z,1020.03
2018-12-14T03:40:42.408Z,1020.07
2018-12-14T03:41:42.227Z,1020.05
2018-12-14T03:42:42.220Z,1020.05
2018-12-14T03:43:42.226Z,1020.03
2018-12-14T03:44:42.194Z,1020.01
2018-12-14T03:45:42.186Z,1020.00
2018-12-14T03:46:42.272Z,1020.01
2018-12-14T03:47:42.267Z,1020.01
2018-12-14T03:48:42.151Z,1020.01
2018-12-14T03:49:42.137Z,1020.00
2018-12-14T03:50:42.143Z,1019.99
2018-12-14T03:51:42.175Z,1019.96
2018-12-14T03:52:42.099Z,1019.96
2018-12-14T03:53:42.265Z,1019.94
2018-12-14T03:54:42.177Z,1019.95
2018-12-14T03:55:42.081Z,1020.00
2018-12-14T03:56:42.084Z,1019.94
2018-12-14T03:57:42.063Z,1019.95
2018-12-14T03:58:42.059Z,1019.91
2018-12-14T03:59:42.043Z,1019.91
2018-12-14T04:00:42.174Z,1019.92
2018-12-14T04:01:42.009Z,1019.93
2018-12-14T04:02:42.020Z,1019.96
2018-12-14T04:03:41.998Z,1019.93
2018-12-14T04:04:42.106Z,1019.93
2018-12-14T04:05:41.981Z,1019.89
2018-12-14T04:06:42.175Z,1019.91
2018-12-14T04:07:41.951Z,1019.90
2018-12-14T04:08:41.939Z,1019.96
2018-12-14T04:09:41.925Z,1019.90
2018-12-14T04:10:41.926Z,1019.96
2018-12-14T04:11:42.038Z,1019.93
2018-12-14T04:12:42.210Z,1019.94
2018-12-14T04:13:42.008Z,1019.91
2018-12-14T04:14:42.009Z,1019.94
2018-12-14T04:15:41.898Z,1019.93
2018-12-14T04:16:41.862Z,1019.94
2018-12-14T04:17:41.851Z,1019.96
2018-12-14T04:18:41.819Z,1019.98
2018-12-14T04:19:41.827Z,1019.98
2018-12-14T04:20:41.996Z,1020.00
2018-12-14T04:21:41.795Z,1020.07
2018-12-14T04:22:41.786Z,1020.07
2018-12-14T04:23:41.807Z,1020.02
2018-12-14T04:24:41.756Z,1020.10
2018-12-14T04:25:41.753Z,1020.06
2018-12-14T04:26:41.863Z,1020.05
2018-12-14T04:27:41.726Z,1020.07
2018-12-14T04:28:41.714Z,1020.12
2018-12-14T04:29:41.748Z,1020.08
2018-12-14T04:30:41.704Z,1020.07
2018-12-14T04:31:42.898Z,1020.08
2018-12-14T04:32:41.671Z,1020.09
2018-12-14T04:33:41.668Z,1020.07
2018-12-14T04:34:42.034Z,1020.04
2018-12-14T04:35:41.650Z,1020.04
2018-12-14T04:36:41.985Z,1020.01
2018-12-14T04:37:41.713Z,1020.01
2018-12-14T04:38:41.687Z,1020.05
2018-12-14T04:39:41.719Z,1020.10
2018-12-14T04:40:42.040Z,1020.05
2018-12-14T04:41:41.695Z,1020.07
2018-12-14T04:42:48.690Z,1020.08
2018-12-14T04:43:42.678Z,1020.10
2018-12-14T04:44:41.628Z,1020.09
2018-12-14T04:45:41.585Z,1020.10
2018-12-14T04:46:41.622Z,1020.06
2018-12-14T04:47:41.609Z,1020.05
2018-12-14T04:48:41.797Z,1020.08
2018-12-14T04:49:41.514Z,1020.07
2018-12-14T04:50:41.479Z,1020.05
2018-12-14T04:51:41.488Z,1020.05
2018-12-14T04:52:42.564Z,1020.04
2018-12-14T04:53:41.493Z,1020.05
2018-12-14T04:54:41.509Z,1020.10
2018-12-14T04:55:41.619Z,1020.05
2018-12-14T04:56:41.645Z,1020.08
2018-12-14T04:57:41.488Z,1020.08
2018-12-14T04:58:41.400Z,1020.10
2018-12-14T04:59:41.425Z,1020.04
2018-12-14T05:00:41.513Z,1020.09
2018-12-14T05:01:41.396Z,1020.07
2018-12-14T05:02:41.422Z,1020.08
2018-12-14T05:03:41.408Z,1020.02
2018-12-14T05:04:41.399Z,1020.01
2018-12-14T05:05:41.392Z,1020.00
2018-12-14T05:06:41.493Z,1019.97
2018-12-14T05:07:41.606Z,1020.01
2018-12-14T05:08:41.424Z,1020.03
2018-12-14T05:09:41.460Z,1019.97
2018-12-14T05:10:41.432Z,1019.97
2018-12-14T05:11:41.418Z,1019.95
2018-12-14T05:12:41.448Z,1019.94
2018-12-14T05:13:42.290Z,1019.99
2018-12-14T05:14:41.753Z,1019.98
2018-12-14T05:15:41.441Z,1020.02
2018-12-14T05:16:41.469Z,1020.00
2018-12-14T05:17:41.422Z,1020.04
2018-12-14T05:18:41.486Z,1020.07
2018-12-14T05:19:41.602Z,1020.07
2018-12-14T05:20:41.432Z,1020.07
2018-12-14T05:21:41.404Z,1020.07
2018-12-14T05:22:41.440Z,1020.09
2018-12-14T05:23:41.400Z,1020.10
2018-12-14T05:24:41.389Z,1020.09
2018-12-14T05:25:41.572Z,1020.08
2018-12-14T05:26:41.417Z,1020.08
2018-12-14T05:27:41.439Z,1020.02
2018-12-14T05:28:41.396Z,1020.05
2018-12-14T05:29:41.445Z,1020.04
2018-12-14T05:30:41.620Z,1020.12
2018-12-14T05:31:41.408Z,1020.15
2018-12-14T05:32:41.588Z,1020.10
2018-12-14T05:33:41.363Z,1020.12
2018-12-14T05:34:41.476Z,1020.13
2018-12-14T05:35:41.172Z,1020.11
2018-12-14T05:36:41.500Z,1020.12
2018-12-14T05:37:41.597Z,1020.06
2018-12-14T05:38:40.984Z,1020.10
2018-12-14T05:39:40.940Z,1020.12
2018-12-14T05:40:41.487Z,1020.16
2018-12-14T05:41:40.925Z,1020.17
2018-12-14T05:42:41.394Z,1020.21
2018-12-14T05:43:40.921Z,1020.21
2018-12-14T05:44:40.915Z,1020.24
2018-12-14T05:45:40.878Z,1020.24
2018-12-14T05:46:41.531Z,1020.20
2018-12-14T05:47:40.880Z,1020.24
2018-12-14T05:48:40.946Z,1020.27
2018-12-14T05:49:40.865Z,1020.19
2018-12-14T05:50:40.843Z,1020.21
2018-12-14T05:51:40.911Z,1020.22
2018-12-14T05:52:41.952Z,1020.23
2018-12-14T05:53:40.809Z,1020.21
2018-12-14T05:54:40.784Z,1020.19
2018-12-14T05:55:40.796Z,1020.20
2018-12-14T05:56:40.897Z,1020.23
2018-12-14T05:57:41.566Z,1020.19
2018-12-14T05:58:40.858Z,1020.24
2018-12-14T05:59:40.869Z,1020.22
2018-12-14T06:00:40.726Z,1020.24
2018-12-14T06:01:40.733Z,1020.29
2018-12-14T06:02:40.728Z,1020.29
2018-12-14T06:03:40.961Z,1020.31
2018-12-14T06:04:40.680Z,1020.26
2018-12-14T06:05:40.668Z,1020.28
2018-12-14T06:06:40.663Z,1020.26
2018-12-14T06:07:40.799Z,1020.26
2018-12-14T06:08:40.632Z,1020.27
2018-12-14T06:09:40.776Z,1020.25
2018-12-14T06:10:40.613Z,1020.28
2018-12-14T06:11:40.625Z,1020.28
2018-12-14T06:12:40.619Z,1020.31
2018-12-14T06:13:40.640Z,1020.34
2018-12-14T06:14:40.573Z,1020.38
2018-12-14T06:15:40.839Z,1020.38
2018-12-14T06:16:40.553Z,1020.33
2018-12-14T06:17:40.537Z,1020.37
2018-12-14T06:18:40.534Z,1020.35
2018-12-14T06:19:40.646Z,1020.36
2018-12-14T06:20:40.570Z,1020.36
2018-12-14T06:21:40.488Z,1020.33
2018-12-14T06:22:40.491Z,1020.37
2018-12-14T06:23:40.477Z,1020.36
2018-12-14T06:24:40.590Z,1020.37
2018-12-14T06:25:40.459Z,1020.36
2018-12-14T06:26:40.441Z,1020.38
2018-12-14T06:27:40.425Z,1020.40
2018-12-14T06:28:40.417Z,1020.39
2018-12-14T06:29:40.440Z,1020.40
2018-12-14T06:30:40.503Z,1020.43
2018-12-14T06:31:40.492Z,1020.48
2018-12-14T06:32:40.375Z,1020.44
2018-12-14T06:33:40.365Z,1020.48
2018-12-14T06:34:40.354Z,1020.44
2018-12-14T06:35:40.357Z,1020.47
2018-12-14T06:36:40.328Z,1020.47
2018-12-14T06:37:40.521Z,1020.48
2018-12-14T06:38:40.320Z,1020.49
2018-12-14T06:39:40.318Z,1020.53
2018-12-14T06:40:40.345Z,1020.52
2018-12-14T06:41:40.303Z,1020.53
2018-12-14T06:42:40.299Z,1020.55
2018-12-14T06:43:40.428Z,1020.60
2018-12-14T06:44:40.246Z,1020.55
2018-12-14T06:45:40.263Z,1020.60
2018-12-14T06:46:40.227Z,1020.61
2018-12-14T06:47:40.245Z,1020.64
2018-12-14T06:48:40.216Z,1020.62
2018-12-14T06:49:40.304Z,1020.60
2018-12-14T06:50:40.181Z,1020.62
2018-12-14T06:51:40.262Z,1020.62
2018-12-14T06:52:40.234Z,1020.63
2018-12-14T06:53:40.163Z,1020.63
2018-12-14T06:54:40.316Z,1020.67
2018-12-14T06:55:40.124Z,1020.68
2018-12-14T06:56:40.132Z,1020.71
2018-12-14T06:57:40.238Z,1020.68
2018-12-14T06:58:40.122Z,1020.71
2018-12-14T06:59:40.750Z,1020.69
2018-12-14T07:00:40.074Z,1020.73
2018-12-14T07:01:40.182Z,1020.71
2018-12-14T07:02:40.150Z,1020.73
2018-12-14T07:03:40.183Z,1020.74
2018-12-14T07:04:40.029Z,1020.70
2018-12-14T07:05:40.024Z,1020.71
2018-12-14T07:06:40.004Z,1020.68
2018-12-14T07:07:40.006Z,1020.70
2018-12-14T07:08:39.992Z,1020.71
2018-12-14T07:09:40.193Z,1020.71
2018-12-14T07:10:39.971Z,1020.69
2018-12-14T07:11:40.146Z,1020.72
2018-12-14T07:12:40.810Z,1020.75
2018-12-14T07:13:39.930Z,1020.76
2018-12-14T07:14:39.932Z,1020.70
2018-12-14T07:15:39.915Z,1020.76
2018-12-14T07:16:40.300Z,1020.76
2018-12-14T07:17:39.949Z,1020.79
2018-12-14T07:18:39.923Z,1020.79
2018-12-14T07:19:39.905Z,1020.77
2018-12-14T07:20:39.896Z,1020.76
2018-12-14T07:21:39.977Z,1020.78
2018-12-14T07:22:39.845Z,1020.77
2018-12-14T07:23:40.004Z,1020.77
2018-12-14T07:24:39.826Z,1020.80
2018-12-14T07:25:39.799Z,1020.79
2018-12-14T07:26:40.123Z,1020.78
2018-12-14T07:27:39.786Z,1020.80
2018-12-14T07:28:39.785Z,1020.76
2018-12-14T07:29:39.756Z,1020.78
2018-12-14T07:30:39.754Z,1020.78
2018-12-14T07:31:39.746Z,1020.80
2018-12-14T07:32:39.939Z,1020.81
2018-12-14T07:33:39.713Z,1020.77
2018-12-14T07:34:39.711Z,1020.81
2018-12-14T07:35:42.034Z,1020.82
2018-12-14T07:36:39.695Z,1020.81
2018-12-14T07:37:39.671Z,1020.83
2018-12-14T07:38:39.772Z,1020.85
2018-12-14T07:39:39.661Z,1020.84
2018-12-14T07:40:39.652Z,1020.89
2018-12-14T07:41:39.654Z,1020.85
2018-12-14T07:42:39.636Z,1020.87
2018-12-14T07:43:39.670Z,1020.88
2018-12-14T07:44:40.062Z,1020.94
2018-12-14T07:45:39.597Z,1020.93
2018-12-14T07:46:39.720Z,1020.94
2018-12-14T07:47:39.593Z,1020.97
2018-12-14T07:48:39.554Z,1020.97
2018-12-14T07:49:39.845Z,1020.97
2018-12-14T07:50:39.559Z,1020.99
2018-12-14T07:51:39.524Z,1020.97
2018-12-14T07:52:39.593Z,1020.98
2018-12-14T07:53:39.530Z,1020.95
2018-12-14T07:54:39.494Z,1020.96
2018-12-14T07:55:39.475Z,1020.99
2018-12-14T07:56:39.526Z,1020.99
2018-12-14T07:57:39.464Z,1021.00
2018-12-14T07:58:39.579Z,1020.97
2018-12-14T07:59:39.438Z,1021.07
2018-12-14T08:00:39.473Z,1021.02
2018-12-14T08:01:39.418Z,1021.07
2018-12-14T08:02:39.434Z,1021.06
2018-12-14T08:03:39.403Z,1021.08
2018-12-14T08:04:39.455Z,1021.15
2018-12-14T08:05:39.403Z,1021.17
2018-12-14T08:06:39.366Z,1021.17
2018-12-14T08:07:40.626Z,1021.16
2018-12-14T08:08:39.339Z,1021.16
2018-12-14T08:09:39.330Z,1021.17
2018-12-14T08:10:39.449Z,1021.16
2018-12-14T08:11:39.301Z,1021.14
2018-12-14T08:12:39.303Z,1021.16
2018-12-14T08:13:39.292Z,1021.19
2018-12-14T08:14:39.466Z,1021.23
2018-12-14T08:15:39.288Z,1021.24
2018-12-14T08:16:39.422Z,1021.20
2018-12-14T08:17:39.406Z,1021.19
2018-12-14T08:18:39.244Z,1021.19
2018-12-14T08:19:39.234Z,1021.22
2018-12-14T08:20:39.228Z,1021.28
2018-12-14T08:21:39.213Z,1021.24
2018-12-14T08:22:39.285Z,1021.28
2018-12-14T08:23:39.212Z,1021.28
2018-12-14T08:24:39.167Z,1021.29
2018-12-14T08:25:39.155Z,1021.33
2018-12-14T08:26:39.161Z,1021.29
2018-12-14T08:27:39.142Z,1021.33
2018-12-14T08:28:39.252Z,1021.32
2018-12-14T08:29:39.110Z,1021.32
2018-12-14T08:30:39.118Z,1021.37
2018-12-14T08:31:39.087Z,1021.37
2018-12-14T08:32:39.148Z,1021.32
2018-12-14T08:33:39.100Z,1021.36
2018-12-14T08:34:39.233Z,1021.37
2018-12-14T08:35:39.048Z,1021.38
2018-12-14T08:36:39.046Z,1021.35
2018-12-14T08:37:39.032Z,1021.35
2018-12-14T08:38:39.028Z,1021.39
2018-12-14T08:39:39.041Z,1021.42
2018-12-14T08:40:39.095Z,1021.41
2018-12-14T08:41:38.997Z,1021.44
2018-12-14T08:42:39.061Z,1021.46
2018-12-14T08:43:41.671Z,1021.47
2018-12-14T08:44:38.970Z,1021.42
2018-12-14T08:45:39.773Z,1021.45
2018-12-14T08:46:39.024Z,1021.49
2018-12-14T08:47:38.923Z,1021.48
2018-12-14T08:48:39.016Z,1021.48
2018-12-14T08:49:38.962Z,1021.51
2018-12-14T08:50:38.989Z,1021.54
2018-12-14T08:51:38.874Z,1021.53
2018-12-14T08:52:38.865Z,1021.62
2018-12-14T08:53:39.003Z,1021.57
2018-12-14T08:54:38.852Z,1021.52
2018-12-14T08:55:38.847Z,1021.53
2018-12-14T08:56:38.845Z,1021.60
2018-12-14T08:57:38.827Z,1021.60
2018-12-14T08:58:38.807Z,1021.56
2018-12-14T08:59:38.944Z,1021.58
2018-12-14T09:00:38.780Z,1021.57
2018-12-14T09:01:38.770Z,1021.55
2018-12-14T09:02:38.754Z,1021.58
2018-12-14T09:03:38.746Z,1021.58
2018-12-14T09:04:38.876Z,1021.60
2018-12-14T09:05:39.166Z,1021.56
2018-12-14T09:06:38.763Z,1021.57
2018-12-14T09:07:38.718Z,1021.59
2018-12-14T09:08:38.710Z,1021.63
2018-12-14T09:09:38.709Z,1021.64
2018-12-14T09:10:38.703Z,1021.67
2018-12-14T09:11:38.788Z,1021.70
2018-12-14T09:12:38.791Z,1021.74
2018-12-14T09:13:38.649Z,1021.71
2018-12-14T09:14:38.629Z,1021.69
2018-12-14T09:15:38.637Z,1021.68
2018-12-14T09:16:38.618Z,1021.68
2018-12-14T09:17:38.604Z,1021.67
2018-12-14T09:18:38.821Z,1021.66
2018-12-14T09:19:38.594Z,1021.68
2018-12-14T09:20:38.753Z,1021.68
2018-12-14T09:21:38.588Z,1021.65
2018-12-14T09:22:38.538Z,1021.62
2018-12-14T09:23:38.531Z,1021.64
2018-12-14T09:24:38.527Z,1021.70
2018-12-14T09:25:38.516Z,1021.73
2018-12-14T09:26:38.942Z,1021.74
2018-12-14T09:27:38.485Z,1021.73
2018-12-14T09:28:38.482Z,1021.71
2018-12-14T09:29:39.333Z,1021.72
2018-12-14T09:30:42.617Z,1021.69
2018-12-14T09:31:38.450Z,1021.73
2018-12-14T09:32:38.554Z,1021.75
2018-12-14T09:33:38.412Z,1021.71
2018-12-14T09:34:38.975Z,1021.75
2018-12-14T09:35:38.437Z,1021.67
2018-12-14T09:36:38.387Z,1021.71
2018-12-14T09:37:38.376Z,1021.75
2018-12-14T09:38:38.546Z,1021.72
2018-12-14T09:39:38.346Z,1021.72
2018-12-14T09:40:38.343Z,1021.74
2018-12-14T09:41:38.351Z,1021.69
2018-12-14T09:42:38.333Z,1021.76
2018-12-14T09:43:38.311Z,1021.75
2018-12-14T09:44:38.470Z,1021.73
2018-12-14T09:45:38.295Z,1021.75
2018-12-14T09:46:38.296Z,1021.72
2018-12-14T09:47:38.279Z,1021.75
2018-12-14T09:48:38.277Z,1021.71
2018-12-14T09:49:38.429Z,1021.69
2018-12-14T09:50:38.730Z,1021.70
2018-12-14T09:51:38.237Z,1021.74
2018-12-14T09:52:38.269Z,1021.71
2018-12-14T09:53:38.207Z,1021.70
2018-12-14T09:54:38.303Z,1021.70
2018-12-14T09:55:38.309Z,1021.68
2018-12-14T09:56:38.254Z,1021.67
2018-12-14T09:57:38.198Z,1021.65
2018-12-14T09:58:38.164Z,1021.67
2018-12-14T09:59:38.361Z,1021.70
2018-12-14T10:00:40.843Z,1021.70
2018-12-14T10:01:38.143Z,1021.67
2018-12-14T10:02:38.250Z,1021.75
2018-12-14T10:03:38.101Z,1021.67
2018-12-14T10:04:38.091Z,1021.67
2018-12-14T10:05:38.076Z,1021.69
2018-12-14T10:06:38.089Z,1021.67
2018-12-14T10:07:38.051Z,1021.70
2018-12-14T10:08:38.203Z,1021.69
2018-12-14T10:09:38.148Z,1021.66
2018-12-14T10:10:38.094Z,1021.72
2018-12-14T10:11:38.036Z,1021.67
2018-12-14T10:12:38.082Z,1021.65
2018-12-14T10:13:38.056Z,1021.68
2018-12-14T10:14:38.136Z,1021.64
2018-12-14T10:15:38.958Z,1021.67
2018-12-14T10:16:37.971Z,1021.60
2018-12-14T10:17:37.974Z,1021.59
2018-12-14T10:18:38.084Z,1021.61
2018-12-14T10:19:40.121Z,1021.64
2018-12-14T10:20:38.070Z,1021.63
2018-12-14T10:21:37.939Z,1021.62
2018-12-14T10:22:41.475Z,1021.65
2018-12-14T10:23:37.941Z,1021.66
2018-12-14T10:24:37.915Z,1021.60
2018-12-14T10:25:38.820Z,1021.64
2018-12-14T10:26:38.926Z,1021.62
2018-12-14T10:27:37.850Z,1021.63
2018-12-14T10:28:37.876Z,1021.67
2018-12-14T10:29:37.855Z,1021.61
2018-12-14T10:30:37.811Z,1021.64
2018-12-14T10:31:37.837Z,1021.63
2018-12-14T10:32:38.199Z,1021.65
2018-12-14T10:33:37.775Z,1021.68
2018-12-14T10:34:37.776Z,1021.65
2018-12-14T10:35:37.757Z,1021.64
2018-12-14T10:36:38.702Z,1021.68
2018-12-14T10:37:37.732Z,1021.66
2018-12-14T10:38:37.979Z,1021.67
2018-12-14T10:39:37.715Z,1021.72
2018-12-14T10:40:38.547Z,1021.69
2018-12-14T10:41:37.790Z,1021.67
2018-12-14T10:42:37.679Z,1021.63
2018-12-14T10:43:37.679Z,1021.64
2018-12-14T10:44:37.669Z,1021.60
2018-12-14T10:45:37.652Z,1021.58
2018-12-14T10:46:37.658Z,1021.63
2018-12-14T10:47:37.757Z,1021.60
2018-12-14T10:48:37.625Z,1021.61
2018-12-14T10:49:37.635Z,1021.58
2018-12-14T10:50:39.701Z,1021.62
2018-12-14T10:51:37.609Z,1021.59
2018-12-14T10:52:37.591Z,1021.57
2018-12-14T10:53:37.641Z,1021.59
2018-12-14T10:54:37.557Z,1021.58
2018-12-14T10:55:38.056Z,1021.58
2018-12-14T10:56:37.523Z,1021.60
2018-12-14T10:57:37.888Z,1021.58
2018-12-14T10:58:37.521Z,1021.62
2018-12-14T10:59:37.600Z,1021.59
2018-12-14T11:00:37.526Z,1021.59
2018-12-14T11:01:37.510Z,1021.58
2018-12-14T11:02:37.464Z,1021.60
2018-12-14T11:03:37.460Z,1021.56
2018-12-14T11:04:37.459Z,1021.61
2018-12-14T11:05:37.662Z,1021.60
2018-12-14T11:06:37.417Z,1021.56
2018-12-14T11:07:37.408Z,1021.53
2018-12-14T11:08:37.401Z,1021.56
2018-12-14T11:09:37.395Z,1021.54
2018-12-14T11:10:37.391Z,1021.59
2018-12-14T11:11:37.480Z,1021.58
2018-12-14T11:12:37.348Z,1021.57
2018-12-14T11:13:37.351Z,1021.60
2018-12-14T11:14:37.342Z,1021.53
2018-12-14T11:15:37.350Z,1021.62
2018-12-14T11:16:37.322Z,1021.60
2018-12-14T11:17:37.430Z,1021.60
2018-12-14T11:18:37.499Z,1021.60
2018-12-14T11:19:37.273Z,1021.60
2018-12-14T11:20:37.402Z,1021.62
2018-12-14T11:21:37.264Z,1021.56
2018-12-14T11:22:37.249Z,1021.57
2018-12-14T11:23:37.619Z,1021.63
2018-12-14T11:24:37.229Z,1021.60
2018-12-14T11:25:37.367Z,1021.63
2018-12-14T11:26:37.203Z,1021.65
2018-12-14T11:27:37.226Z,1021.69
2018-12-14T11:28:37.827Z,1021.70
2018-12-14T11:29:37.244Z,1021.72
2018-12-14T11:30:37.151Z,1021.71
2018-12-14T11:31:37.302Z,1021.75
2018-12-14T11:32:37.129Z,1021.70
2018-12-14T11:33:37.135Z,1021.73
2018-12-14T11:34:37.246Z,1021.70
2018-12-14T11:35:37.281Z,1021.74
2018-12-14T11:36:37.127Z,1021.71
2018-12-14T11:37:37.080Z,1021.78
2018-12-14T11:38:37.084Z,1021.73
2018-12-14T11:39:37.067Z,1021.76
2018-12-14T11:40:37.076Z,1021.74
2018-12-14T11:41:37.126Z,1021.77
2018-12-14T11:42:37.030Z,1021.74
2018-12-14T11:43:37.014Z,1021.77
2018-12-14T11:44:37.026Z,1021.73
2018-12-14T11:45:36.989Z,1021.76
2018-12-14T11:46:36.968Z,1021.79
2018-12-14T11:47:37.092Z,1021.81
2018-12-14T11:48:36.951Z,1021.79
2018-12-14T11:49:36.948Z,1021.83
2018-12-14T11:50:36.985Z,1021.86
2018-12-14T11:51:36.971Z,1021.86
2018-12-14T11:52:37.011Z,1021.85
2018-12-14T11:53:37.038Z,1021.88
2018-12-14T11:54:36.915Z,1021.90
2018-12-14T11:55:36.889Z,1021.91
2018-12-14T11:56:36.906Z,1021.84
2018-12-14T11:57:36.869Z,1021.87
2018-12-14T11:58:37.271Z,1021.93
2018-12-14T11:59:36.887Z,1021.92
2018-12-14T12:00:36.831Z,1021.98
2018-12-14T12:01:36.823Z,1021.94
2018-12-14T12:02:42.907Z,1021.91
2018-12-14T12:03:42.783Z,1021.96
2018-12-14T12:04:36.786Z,1021.90
2018-12-14T12:05:36.760Z,1021.88